createdAt,value
2023-10-09T00:02:26.250Z,101810.34
2023-10-09T00:04:52.824Z,101812.38
2023-10-09T00:07:19.440Z,101817.47
2023-10-09T00:09:46.039Z,101810.09
2023-10-09T00:12:17.846Z,101816.06
2023-10-09T00:14:44.655Z,101807.25
2023-10-09T00:17:11.306Z,101801.25
2023-10-09T00:19:37.878Z,101799.78
2023-10-09T00:22:04.531Z,101792.34
2023-10-09T00:24:33.471Z,101788.28
2023-10-09T00:27:00.294Z,101799.94
2023-10-09T00:29:28.361Z,101797.09
2023-10-09T00:31:55.437Z,101754.81
2023-10-09T00:34:23.464Z,101771.81
2023-10-09T00:36:50.716Z,101753.38
2023-10-09T00:39:17.648Z,101735.69
2023-10-09T00:41:44.229Z,101739.41
2023-10-09T00:44:10.862Z,101732.22
2023-10-09T00:46:38.928Z,101710.84
2023-10-09T00:49:05.567Z,101700.41
2023-10-09T00:51:32.236Z,101695.00
2023-10-09T00:54:01.234Z,101697.72
2023-10-09T00:56:28.322Z,101703.94
2023-10-09T00:58:57.617Z,101704.47
2023-10-09T01:01:24.251Z,101704.50
2023-10-09T01:03:52.532Z,101707.50
2023-10-09T01:06:19.313Z,101701.50
2023-10-09T01:08:45.922Z,101697.44
2023-10-09T01:11:14.770Z,101720.69
2023-10-09T01:13:42.533Z,101688.25
2023-10-09T01:16:09.423Z,101650.47
2023-10-09T01:18:36.044Z,101644.69
2023-10-09T01:21:04.102Z,101675.28
2023-10-09T01:23:32.029Z,101691.84
2023-10-09T01:25:58.653Z,101660.88
2023-10-09T01:28:25.325Z,101698.63
2023-10-09T01:30:51.971Z,101710.03
2023-10-09T01:33:18.763Z,101691.50
2023-10-09T01:35:45.475Z,101675.81
2023-10-09T01:38:12.143Z,101682.34
2023-10-09T01:40:40.213Z,101669.75
2023-10-09T01:43:06.821Z,101668.72
2023-10-09T01:45:33.464Z,101669.44
2023-10-09T01:48:00.203Z,101651.44
2023-10-09T01:50:26.872Z,101650.16
2023-10-09T01:52:53.683Z,101651.75
2023-10-09T01:55:20.558Z,101644.56
2023-10-09T01:57:48.508Z,101628.28
2023-10-09T02:00:15.560Z,101626.75
2023-10-09T02:02:42.234Z,101627.28
2023-10-09T02:05:09.028Z,101624.91
2023-10-09T02:07:35.703Z,101611.66
2023-10-09T02:10:02.314Z,101603.50
2023-10-09T02:12:28.951Z,101587.94
2023-10-09T02:14:56.966Z,101591.22
2023-10-09T02:17:23.640Z,101585.94
2023-10-09T02:19:50.435Z,101568.41
2023-10-09T02:22:17.101Z,101557.66
2023-10-09T02:24:45.214Z,101560.09
2023-10-09T02:27:11.900Z,101549.72
2023-10-09T02:29:38.560Z,101556.47
2023-10-09T02:32:06.623Z,101546.28
2023-10-09T02:34:33.268Z,101552.97
2023-10-09T02:36:59.845Z,101546.91
2023-10-09T02:39:26.460Z,101539.94
2023-10-09T02:41:53.893Z,101534.25
2023-10-09T02:44:20.461Z,101539.38
2023-10-09T02:46:47.186Z,101534.53
2023-10-09T02:49:15.187Z,101530.91
2023-10-09T02:51:41.777Z,101532.59
2023-10-09T02:54:09.406Z,101540.16
2023-10-09T02:56:37.256Z,101534.91
2023-10-09T02:59:03.901Z,101550.81
2023-10-09T03:01:30.514Z,101543.88
2023-10-09T03:03:58.280Z,101538.19
2023-10-09T03:06:26.393Z,101524.56
2023-10-09T03:08:53.093Z,101529.16
2023-10-09T03:11:19.671Z,101519.41
2023-10-09T03:13:46.279Z,101522.44
2023-10-09T03:16:13.010Z,101527.50
2023-10-09T03:18:39.618Z,101523.41
2023-10-09T03:21:06.293Z,101507.59
2023-10-09T03:23:35.728Z,101512.22
2023-10-09T03:26:19.004Z,101492.06
2023-10-09T03:28:49.044Z,101499.25
2023-10-09T03:31:16.049Z,101498.94
2023-10-09T03:33:42.750Z,101510.22
2023-10-09T03:36:09.380Z,101506.06
2023-10-09T03:38:37.877Z,101498.16
2023-10-09T03:41:05.195Z,101511.28
2023-10-09T03:43:31.769Z,101516.03
2023-10-09T03:45:58.326Z,101506.97
2023-10-09T03:48:24.884Z,101510.38
2023-10-09T03:50:51.487Z,101514.94
2023-10-09T03:53:18.093Z,101519.03
2023-10-09T03:55:46.002Z,101500.75
2023-10-09T03:58:12.574Z,101503.06
2023-10-09T04:00:39.240Z,101495.00
2023-10-09T04:03:06.077Z,101487.94
2023-10-09T04:05:32.741Z,101487.63
2023-10-09T04:07:59.298Z,101491.16
2023-10-09T04:10:26.144Z,101500.53
2023-10-09T04:12:54.183Z,101485.25
2023-10-09T04:15:20.790Z,101507.03
2023-10-09T04:17:47.396Z,101503.84
2023-10-09T04:20:14.027Z,101504.94
2023-10-09T04:22:41.936Z,101504.16
2023-10-09T04:25:09.144Z,101494.13
2023-10-09T04:27:35.749Z,101489.09
2023-10-09T04:30:04.223Z,101481.25
2023-10-09T04:32:30.835Z,101485.47
2023-10-09T04:34:57.417Z,101471.19
2023-10-09T04:37:24.052Z,101474.19
2023-10-09T04:39:50.819Z,101479.69
2023-10-09T04:42:18.184Z,101478.50
2023-10-09T04:44:45.313Z,101474.38
2023-10-09T04:47:15.475Z,101461.81
2023-10-09T04:49:42.522Z,101459.56
2023-10-09T04:52:09.083Z,101460.56
2023-10-09T04:54:35.810Z,101449.69
2023-10-09T04:57:02.437Z,101435.34
2023-10-09T04:59:29.025Z,101436.25
2023-10-09T05:01:55.709Z,101423.09
2023-10-09T05:04:23.772Z,101420.94
2023-10-09T05:06:50.381Z,101422.00
2023-10-09T05:09:17.266Z,101421.66
2023-10-09T05:11:44.097Z,101421.50
2023-10-09T05:14:10.704Z,101423.50
2023-10-09T05:16:37.329Z,101414.44
2023-10-09T05:19:03.933Z,101408.38
2023-10-09T05:21:33.816Z,101397.66
2023-10-09T05:24:00.865Z,101383.38
2023-10-09T05:26:27.466Z,101394.63
2023-10-09T05:28:54.066Z,101411.41
2023-10-09T05:31:20.620Z,101416.13
2023-10-09T05:33:47.220Z,101437.94
2023-10-09T05:36:13.888Z,101446.00
2023-10-09T05:38:41.844Z,101453.25
2023-10-09T05:41:08.382Z,101440.63
2023-10-09T05:43:34.939Z,101443.31
2023-10-09T05:46:01.547Z,101421.50
2023-10-09T05:48:28.237Z,101422.53
2023-10-09T05:50:54.868Z,101414.16
2023-10-09T05:53:21.424Z,101412.31
2023-10-09T05:55:49.455Z,101412.66
2023-10-09T05:58:16.067Z,101423.81
2023-10-09T06:00:42.729Z,101431.56
2023-10-09T06:03:09.712Z,101426.50
2023-10-09T06:05:36.338Z,101434.91
2023-10-09T06:08:03.324Z,101444.84
2023-10-09T06:10:29.875Z,101449.63
2023-10-09T06:12:58.615Z,101447.59
2023-10-09T06:15:25.445Z,101453.84
2023-10-09T06:17:52.191Z,101462.44
2023-10-09T06:20:19.081Z,101455.88
2023-10-09T06:22:45.626Z,101461.09
2023-10-09T06:25:12.393Z,101464.47
2023-10-09T06:27:39.262Z,101458.59
2023-10-09T06:30:08.981Z,101468.03
2023-10-09T06:32:35.751Z,101468.72
2023-10-09T06:35:03.416Z,101469.38
2023-10-09T06:37:29.992Z,101478.66
2023-10-09T06:39:57.529Z,101476.28
2023-10-09T06:42:24.396Z,101473.28
2023-10-09T06:44:51.413Z,101477.31
2023-10-09T06:47:19.331Z,101470.41
2023-10-09T06:49:45.870Z,101467.56
2023-10-09T06:52:12.433Z,101462.34
2023-10-09T06:54:39.106Z,101472.59
2023-10-09T06:57:05.735Z,101465.34
2023-10-09T06:59:32.313Z,101458.63
2023-10-09T07:01:58.930Z,101458.09
2023-10-09T07:04:26.961Z,101453.91
2023-10-09T07:06:53.610Z,101461.78
2023-10-09T07:09:20.567Z,101465.84
2023-10-09T07:11:48.839Z,101462.81
2023-10-09T07:14:16.574Z,101462.97
2023-10-09T07:16:43.144Z,101452.19
2023-10-09T07:19:09.705Z,101456.56
2023-10-09T07:21:38.074Z,101467.38
2023-10-09T07:24:05.549Z,101464.47
2023-10-09T07:26:32.163Z,101466.16
2023-10-09T07:28:58.767Z,101461.28
2023-10-09T07:31:25.624Z,101455.88
2023-10-09T07:33:52.870Z,101469.34
2023-10-09T07:36:19.503Z,101467.66
2023-10-09T07:38:47.446Z,101470.00
2023-10-09T07:41:14.038Z,101473.69
2023-10-09T07:43:41.052Z,101463.91
2023-10-09T07:46:08.849Z,101473.16
2023-10-09T07:48:35.543Z,101475.69
2023-10-09T07:51:02.137Z,101477.03
2023-10-09T07:53:28.721Z,101469.97
2023-10-09T07:55:56.813Z,101461.84
2023-10-09T07:58:23.897Z,101473.44
2023-10-09T08:00:50.483Z,101475.97
2023-10-09T08:03:17.168Z,101469.88
2023-10-09T08:05:43.822Z,101467.19
2023-10-09T08:08:16.761Z,101476.94
2023-10-09T08:10:55.992Z,101472.56
2023-10-09T08:13:22.578Z,101480.97
2023-10-09T08:15:49.212Z,101476.91
2023-10-09T08:18:15.987Z,101485.34
2023-10-09T08:20:42.729Z,101485.50
2023-10-09T08:23:09.262Z,101477.72
2023-10-09T08:25:35.839Z,101492.19
2023-10-09T08:28:04.595Z,101490.00
2023-10-09T08:30:31.221Z,101490.00
2023-10-09T08:35:27.525Z,101492.00
2023-10-09T08:37:54.392Z,101487.63
2023-10-09T08:40:21.098Z,101496.75
2023-10-09T08:42:54.074Z,101500.41
2023-10-09T08:45:23.800Z,101500.59
2023-10-09T08:47:50.546Z,101497.59
2023-10-09T08:50:17.223Z,101494.91
2023-10-09T08:52:43.835Z,101490.63
2023-10-09T08:55:10.509Z,101488.97
2023-10-09T08:57:40.007Z,101493.69
2023-10-09T09:00:07.764Z,101496.38
2023-10-09T09:02:35.697Z,101484.22
2023-10-09T09:05:17.824Z,101487.72
2023-10-09T09:07:44.645Z,101489.75
2023-10-09T09:10:11.256Z,101491.94
2023-10-09T09:12:41.732Z,101487.19
2023-10-09T09:15:14.919Z,101481.13
2023-10-09T09:17:42.889Z,101475.53
2023-10-09T09:20:22.749Z,101481.72
2023-10-09T09:22:53.725Z,101478.72
2023-10-09T09:25:20.550Z,101484.94
2023-10-09T09:27:47.616Z,101468.94
2023-10-09T09:30:23.641Z,101473.25
2023-10-09T09:32:51.641Z,101481.19
2023-10-09T09:35:18.497Z,101487.44
2023-10-09T09:37:53.920Z,101482.03
2023-10-09T09:40:20.635Z,101500.81
2023-10-09T09:42:49.994Z,101507.88
2023-10-09T09:45:17.063Z,101503.44
2023-10-09T09:47:44.993Z,101500.56
2023-10-09T09:50:13.404Z,101499.34
2023-10-09T09:52:40.842Z,101510.00
2023-10-09T09:55:09.822Z,101512.03
2023-10-09T09:57:37.040Z,101519.97
2023-10-09T10:00:07.129Z,101519.06
2023-10-09T10:02:40.263Z,101517.38
2023-10-09T10:05:10.512Z,101529.88
2023-10-09T10:07:40.006Z,101518.41
2023-10-09T10:10:35.266Z,101523.44
2023-10-09T10:13:01.955Z,101511.38
2023-10-09T10:16:06.237Z,101523.31
2023-10-09T10:18:33.645Z,101528.84
2023-10-09T10:21:13.754Z,101535.81
2023-10-09T10:23:41.836Z,101536.00
2023-10-09T10:26:18.734Z,101539.19
2023-10-09T10:28:45.328Z,101540.63
2023-10-09T10:31:12.588Z,101544.78
2023-10-09T10:34:06.916Z,101549.75
2023-10-09T10:36:33.665Z,101555.81
2023-10-09T10:39:02.858Z,101558.16
2023-10-09T10:41:29.419Z,101563.56
2023-10-09T10:43:56.105Z,101547.47
2023-10-09T10:46:24.503Z,101562.59
2023-10-09T10:48:51.474Z,101551.56
2023-10-09T10:51:18.160Z,101552.75
2023-10-09T10:53:52.125Z,101552.22
2023-10-09T10:56:20.223Z,101557.56
2023-10-09T10:58:53.469Z,101558.84
2023-10-09T11:01:21.526Z,101556.44
2023-10-09T11:03:49.051Z,101554.78
2023-10-09T11:06:25.941Z,101565.56
2023-10-09T11:08:52.505Z,101553.50
2023-10-09T11:11:20.781Z,101571.09
2023-10-09T11:13:47.711Z,101572.22
2023-10-09T11:16:14.348Z,101571.13
2023-10-09T11:18:42.120Z,101568.38
2023-10-09T11:21:08.778Z,101566.53
2023-10-09T11:23:36.108Z,101571.13
2023-10-09T11:26:04.359Z,101561.81
2023-10-09T11:28:32.400Z,101572.34
2023-10-09T11:31:07.469Z,101559.31
2023-10-09T11:33:44.422Z,101566.97
2023-10-09T11:36:11.329Z,101570.25
2023-10-09T11:38:38.123Z,101573.47
2023-10-09T11:41:13.081Z,101570.66
2023-10-09T11:43:48.435Z,101568.47
2023-10-09T11:46:15.082Z,101570.50
2023-10-09T11:48:41.814Z,101563.81
2023-10-09T11:51:13.331Z,101567.59
2023-10-09T11:53:41.384Z,101577.59
2023-10-09T11:56:08.002Z,101572.56
2023-10-09T11:58:34.712Z,101582.03
2023-10-09T12:01:12.157Z,101569.97
2023-10-09T12:03:38.877Z,101570.34
2023-10-09T12:06:05.695Z,101567.31
2023-10-09T12:08:32.908Z,101565.91
2023-10-09T12:10:59.903Z,101566.19
2023-10-09T12:13:26.550Z,101571.16
2023-10-09T12:15:54.102Z,101575.69
2023-10-09T12:18:22.912Z,101583.38
2023-10-09T12:20:49.612Z,101572.09
2023-10-09T12:23:16.340Z,101565.84
2023-10-09T12:25:43.117Z,101573.41
2023-10-09T12:28:09.734Z,101573.47
2023-10-09T12:30:36.344Z,101574.03
2023-10-09T12:33:03.177Z,101577.28
2023-10-09T12:35:32.061Z,101570.78
2023-10-09T12:38:00.053Z,101570.22
2023-10-09T12:40:26.930Z,101575.13
2023-10-09T12:42:53.712Z,101573.41
2023-10-09T12:45:20.422Z,101564.81
2023-10-09T12:47:47.197Z,101571.50
2023-10-09T12:50:13.918Z,101575.97
2023-10-09T12:52:41.948Z,101572.72
2023-10-09T12:55:09.544Z,101570.31
2023-10-09T12:57:36.132Z,101573.06
2023-10-09T13:00:02.834Z,101576.72
2023-10-09T13:02:30.068Z,101574.31
2023-10-09T13:04:57.211Z,101572.34
2023-10-09T13:07:23.887Z,101566.47
2023-10-09T13:09:52.165Z,101575.06
2023-10-09T13:12:18.781Z,101579.25
2023-10-09T13:14:45.362Z,101583.81
2023-10-09T13:17:12.303Z,101584.09
2023-10-09T13:19:39.032Z,101582.56
2023-10-09T13:22:05.651Z,101586.09
2023-10-09T13:24:32.209Z,101585.38
2023-10-09T13:27:00.120Z,101586.34
2023-10-09T13:29:26.814Z,101586.28
2023-10-09T13:31:53.469Z,101586.16
2023-10-09T13:34:20.049Z,101591.50
2023-10-09T13:36:46.666Z,101588.44
2023-10-09T13:39:13.296Z,101584.94
2023-10-09T13:41:39.889Z,101598.09
2023-10-09T13:44:07.795Z,101597.38
2023-10-09T13:46:34.447Z,101599.41
2023-10-09T13:49:01.075Z,101606.81
2023-10-09T13:51:27.624Z,101606.03
2023-10-09T13:53:54.192Z,101617.28
2023-10-09T13:56:24.552Z,101611.13
2023-10-09T13:58:52.210Z,101610.72
2023-10-09T14:01:20.599Z,101603.50
2023-10-09T14:03:48.856Z,101608.72
2023-10-09T14:06:15.828Z,101599.16
2023-10-09T14:08:42.371Z,101601.19
2023-10-09T14:11:09.146Z,101610.94
2023-10-09T14:13:35.823Z,101602.16
2023-10-09T14:16:02.438Z,101593.81
2023-10-09T14:18:30.380Z,101606.69
2023-10-09T14:20:56.939Z,101602.06
2023-10-09T14:23:23.518Z,101595.69
2023-10-09T14:25:50.173Z,101598.19
2023-10-09T14:28:17.025Z,101600.53
2023-10-09T14:30:43.568Z,101605.31
2023-10-09T14:33:10.786Z,101606.88
2023-10-09T14:35:39.283Z,101608.19
2023-10-09T14:38:05.977Z,101612.56
2023-10-09T14:40:32.931Z,101610.00
2023-10-09T14:42:59.626Z,101610.91
2023-10-09T14:45:26.224Z,101606.09
2023-10-09T14:47:53.758Z,101608.16
2023-10-09T14:50:20.815Z,101611.56
2023-10-09T14:52:48.995Z,101620.50
2023-10-09T14:55:15.766Z,101604.88
2023-10-09T14:57:42.336Z,101613.94
2023-10-09T15:00:09.694Z,101621.19
2023-10-09T15:02:36.372Z,101618.31
2023-10-09T15:05:03.164Z,101615.47
2023-10-09T15:07:40.159Z,101616.50
2023-10-09T15:10:10.248Z,101610.84
2023-10-09T15:12:36.932Z,101612.22
2023-10-09T15:15:04.213Z,101608.31
2023-10-09T15:17:30.821Z,101616.78
2023-10-09T15:19:57.467Z,101620.25
2023-10-09T15:22:24.051Z,101618.91
2023-10-09T15:24:50.610Z,101619.97
2023-10-09T15:27:18.716Z,101625.66
2023-10-09T15:29:45.268Z,101629.41
2023-10-09T15:32:11.840Z,101628.91
2023-10-09T15:34:38.433Z,101632.41
2023-10-09T15:37:05.169Z,101632.41
2023-10-09T15:39:31.825Z,101635.97
2023-10-09T15:41:58.417Z,101640.16
2023-10-09T15:44:28.242Z,101641.88
2023-10-09T15:46:55.189Z,101637.84
2023-10-09T15:49:21.801Z,101650.50
2023-10-09T15:51:48.343Z,101643.38
2023-10-09T15:54:15.222Z,101644.38
2023-10-09T15:56:49.071Z,101647.09
2023-10-09T15:59:24.117Z,101654.69
2023-10-09T16:01:52.242Z,101651.28
2023-10-09T16:04:19.031Z,101660.56
2023-10-09T16:06:45.628Z,101653.09
2023-10-09T16:09:12.190Z,101663.28
2023-10-09T16:11:38.921Z,101671.38
2023-10-09T16:14:05.657Z,101664.63
2023-10-09T16:16:32.886Z,101664.81
2023-10-09T16:19:01.971Z,101654.00
2023-10-09T16:21:28.549Z,101672.59
2023-10-09T16:23:55.212Z,101669.06
2023-10-09T16:26:21.823Z,101680.19
2023-10-09T16:28:48.520Z,101686.09
2023-10-09T16:31:15.286Z,101688.97
2023-10-09T16:33:41.991Z,101683.91
2023-10-09T16:36:09.878Z,101690.50
2023-10-09T16:38:38.613Z,101685.25
2023-10-09T16:41:05.195Z,101697.22
2023-10-09T16:43:31.791Z,101684.41
2023-10-09T16:45:58.437Z,101690.13
2023-10-09T16:48:26.138Z,101683.41
2023-10-09T16:50:52.752Z,101691.84
2023-10-09T16:53:20.727Z,101696.72
2023-10-09T16:55:47.525Z,101711.56
2023-10-09T16:58:14.147Z,101712.25
2023-10-09T17:00:40.817Z,101710.41
2023-10-09T17:03:07.792Z,101702.31
2023-10-09T17:05:36.545Z,101710.41
2023-10-09T17:08:03.534Z,101709.06
2023-10-09T17:10:33.849Z,101719.34
2023-10-09T17:13:00.432Z,101716.78
2023-10-09T17:15:27.053Z,101715.44
2023-10-09T17:17:53.648Z,101721.84
2023-10-09T17:20:20.701Z,101725.72
2023-10-09T17:22:47.303Z,101723.22
2023-10-09T17:25:14.048Z,101732.78
2023-10-09T17:27:42.116Z,101739.72
2023-10-09T17:30:09.893Z,101739.91
2023-10-09T17:32:36.758Z,101737.38
2023-10-09T17:35:03.958Z,101746.47
2023-10-09T17:37:30.596Z,101746.84
2023-10-09T17:39:57.164Z,101747.34
2023-10-09T17:42:23.704Z,101743.81
2023-10-09T17:44:51.645Z,101737.22
2023-10-09T17:47:18.271Z,101737.53
2023-10-09T17:49:46.359Z,101735.19
2023-10-09T17:52:12.968Z,101731.16
2023-10-09T17:54:39.653Z,101745.13
2023-10-09T17:57:06.560Z,101742.28
2023-10-09T17:59:33.160Z,101744.59
2023-10-09T18:02:01.154Z,101746.97
2023-10-09T18:04:27.803Z,101741.06
2023-10-09T18:06:54.365Z,101749.69
2023-10-09T18:09:21.201Z,101750.53
2023-10-09T18:11:48.190Z,101747.16
2023-10-09T18:14:15.160Z,101755.75
2023-10-09T18:16:42.309Z,101750.31
2023-10-09T18:19:10.456Z,101759.09
2023-10-09T18:21:37.026Z,101753.91
2023-10-09T18:24:03.845Z,101762.50
2023-10-09T18:26:30.407Z,101760.66
2023-10-09T18:28:57.007Z,101756.59
2023-10-09T18:31:23.641Z,101758.09
2023-10-09T18:33:50.323Z,101758.78
2023-10-09T18:36:18.246Z,101769.06
2023-10-09T18:38:44.913Z,101754.56
2023-10-09T18:41:11.823Z,101772.66
2023-10-09T18:43:38.577Z,101768.56
2023-10-09T18:46:05.458Z,101765.22
2023-10-09T18:48:32.214Z,101763.34
2023-10-09T18:51:00.971Z,101758.31
2023-10-09T18:53:29.570Z,101767.06
2023-10-09T18:55:56.206Z,101759.63
2023-10-09T18:58:22.789Z,101769.41
2023-10-09T19:00:51.724Z,101771.59
2023-10-09T19:03:18.719Z,101778.34
2023-10-09T19:05:45.421Z,101787.75
2023-10-09T19:08:12.299Z,101794.50
2023-10-09T19:10:41.898Z,101792.97
2023-10-09T19:13:08.497Z,101790.94
2023-10-09T19:15:35.044Z,101793.41
2023-10-09T19:18:01.968Z,101787.97
2023-10-09T19:20:28.813Z,101785.44
2023-10-09T19:22:55.437Z,101782.75
2023-10-09T19:25:22.662Z,101786.38
2023-10-09T19:27:50.691Z,101788.47
2023-10-09T19:30:17.386Z,101780.34
2023-10-09T19:32:47.191Z,101787.63
2023-10-09T19:35:15.221Z,101783.06
2023-10-09T19:37:41.901Z,101784.78
2023-10-09T19:40:09.309Z,101786.16
2023-10-09T19:42:36.023Z,101784.41
2023-10-09T19:45:04.332Z,101790.84
2023-10-09T19:47:31.018Z,101794.22
2023-10-09T19:49:57.696Z,101782.09
2023-10-09T19:52:24.321Z,101777.38
2023-10-09T19:54:51.185Z,101779.28
2023-10-09T19:57:17.744Z,101788.16
2023-10-09T19:59:44.356Z,101786.59
2023-10-09T20:02:12.341Z,101788.81
2023-10-09T20:04:39.052Z,101792.38
2023-10-09T20:07:05.611Z,101805.00
2023-10-09T20:09:32.267Z,101792.88
2023-10-09T20:11:58.929Z,101794.88
2023-10-09T20:14:25.581Z,101779.72
2023-10-09T20:16:52.301Z,101787.72
2023-10-09T20:19:20.435Z,101784.66
2023-10-09T20:21:47.007Z,101796.94
2023-10-09T20:24:13.658Z,101799.63
2023-10-09T20:26:40.356Z,101804.66
2023-10-09T20:29:06.966Z,101798.91
2023-10-09T20:31:33.730Z,101809.88
2023-10-09T20:34:00.319Z,101808.66
2023-10-09T20:36:28.226Z,101805.66
2023-10-09T20:38:55.435Z,101801.78
2023-10-09T20:41:22.095Z,101805.84
2023-10-09T20:43:48.886Z,101797.91
2023-10-09T20:46:15.848Z,101797.56
2023-10-09T20:48:42.820Z,101798.25
2023-10-09T20:51:09.427Z,101794.22
2023-10-09T20:53:37.501Z,101795.38
2023-10-09T20:56:04.125Z,101802.09
2023-10-09T20:58:31.121Z,101810.69
2023-10-09T21:00:57.895Z,101810.16
2023-10-09T21:03:24.858Z,101805.31
2023-10-09T21:05:51.562Z,101805.94
2023-10-09T21:08:18.243Z,101817.22
2023-10-09T21:10:46.220Z,101812.69
2023-10-09T21:13:13.886Z,101805.22
2023-10-09T21:15:41.048Z,101809.94
2023-10-09T21:18:11.234Z,101808.09
2023-10-09T21:20:38.856Z,101816.00
2023-10-09T21:23:05.553Z,101813.66
2023-10-09T21:25:32.303Z,101814.81
2023-10-09T21:28:00.376Z,101800.81
2023-10-09T21:30:27.148Z,101794.97
2023-10-09T21:32:54.878Z,101805.72
2023-10-09T21:35:22.681Z,101792.09
2023-10-09T21:37:51.389Z,101801.84
2023-10-09T21:40:18.906Z,101800.47
2023-10-09T21:42:45.712Z,101804.16
2023-10-09T21:45:13.866Z,101810.38
2023-10-09T21:47:40.625Z,101816.41
2023-10-09T21:50:07.815Z,101821.31
2023-10-09T21:52:34.415Z,101820.28
2023-10-09T21:55:01.308Z,101825.03
2023-10-09T21:57:28.123Z,101821.63
2023-10-09T21:59:54.802Z,101819.97
2023-10-09T22:02:22.877Z,101818.09
2023-10-09T22:04:49.511Z,101821.31
2023-10-09T22:07:29.741Z,101826.72
2023-10-09T22:09:58.688Z,101825.06
2023-10-09T22:12:25.267Z,101819.50
2023-10-09T22:14:51.819Z,101826.09
2023-10-09T22:17:18.430Z,101811.59
2023-10-09T22:19:46.386Z,101807.09
2023-10-09T22:22:12.973Z,101809.25
2023-10-09T22:26:31.825Z,101817.69
2023-10-09T22:27:42.866Z,101802.88
2023-10-09T22:30:18.806Z,101812.13
2023-10-09T22:32:45.522Z,101801.16
2023-10-09T22:35:13.612Z,101802.69
2023-10-09T22:37:40.814Z,101811.28
2023-10-09T22:40:08.749Z,101808.59
2023-10-09T22:42:35.330Z,101807.56
2023-10-09T22:45:01.937Z,101813.66
2023-10-09T22:47:28.592Z,101810.22
2023-10-09T22:49:55.277Z,101809.19
2023-10-09T22:52:23.235Z,101805.78
2023-10-09T22:54:49.866Z,101814.22
2023-10-09T22:57:16.667Z,101815.72
2023-10-09T22:59:43.461Z,101814.56
2023-10-09T23:02:10.276Z,101814.41
2023-10-09T23:04:36.920Z,101821.31
2023-10-09T23:07:03.840Z,101814.59
2023-10-09T23:09:31.783Z,101822.38
2023-10-09T23:11:58.814Z,101825.25
2023-10-09T23:14:25.422Z,101827.25
2023-10-09T23:16:52.363Z,101823.84
2023-10-09T23:19:21.074Z,101824.38
2023-10-09T23:21:48.725Z,101822.38
2023-10-09T23:24:15.281Z,101824.91
2023-10-09T23:26:43.323Z,101816.81
2023-10-09T23:29:10.068Z,101821.69
2023-10-09T23:31:37.483Z,101814.28
2023-10-09T23:34:04.081Z,101822.56
2023-10-09T23:36:30.664Z,101823.44
2023-10-09T23:38:57.682Z,101824.75
2023-10-09T23:41:24.260Z,101810.06
2023-10-09T23:43:52.275Z,101814.59
2023-10-09T23:46:19.370Z,101814.09
2023-10-09T23:48:47.135Z,101805.50
2023-10-09T23:51:13.764Z,101814.59
2023-10-09T23:53:40.409Z,101818.97
2023-10-09T23:56:07.787Z,101804.22
2023-10-09T23:58:34.400Z,101811.91
